"WATCHING THE WEATHER TO PROTECT LIFE AND PROPERTY"


THERE ARE CURRENTLY NO WATCHES NOR WARNINGS


Aviation
Satellite (InfraRed)


TNCA 261600Z 09024KT 9999 FEW021 31/23 Q1014 NOSIG
TNCB 261555Z 09021KT 060V120 9999 FEW015 BKN019 BKN024 31/24 Q1015
TNCC 261600Z 10015KT 9999 FEW019 29/23 Q1015 NOSIG=